Terminal Aerodrome Forecast
Issued by NWS

Home | Current Version | Previous Version | Text Only | Print | Product List | Glossary On
Versions: 1 2 3 4 5 6 7 8 9 10 11 12 13
000
FTUS42 KTBW 221134
TAFRSW
TAF
KRSW 221134Z 2212/2312 04005KT P6SM SCT250
     FM221400 04007KT P6SM SCT025 SCT250
     FM221600 06008KT P6SM SCT040 SCT250
      TEMPO 2216/2219 BKN040
     FM221900 07008KT P6SM VCTS SCT035CB BKN060
     FM230000 07006KT P6SM SCT060 BKN250
     FM230400 04004KT P6SM FEW040 SCT250=

USA.gov is the U.S. government's official web portal to all federal, state and local government web resources and services.